Time;durP1;ratioP1;P1;durP2;ratioP2;P2;SDS_P1;SDS_P2;PMS_P1;PMS_P2;Temp;Humidity;BMP_temperature;BMP_pressure;BME280_temperature;BME280_humidity;BME280_pressure;Samples;Min_cycle;Max_cycle;Signal;HPM_P1;HPM_P2
2024/03/21 00:00:24;;;;;;;14.25;12.75;;;;;;;9.17;71.10;98496.47;5030278;28;20033;-76
2024/03/21 00:02:50;;;;;;;14.50;13.00;;;;;;;9.26;71.56;98516.63;5034877;28;20051;-76
2024/03/21 00:05:16;;;;;;;16.80;12.23;;;;;;;9.15;71.78;98503.94;5051175;28;20087;-76
2024/03/21 00:07:47;;;;;;;14.98;12.73;;;;;;;9.05;71.81;98482.19;5016264;28;20120;-76
2024/03/21 00:10:13;;;;;;;14.88;13.25;;;;;;;9.07;72.38;98485.47;5026335;28;20045;-76
2024/03/21 00:12:39;;;;;;;16.98;13.15;;;;;;;9.04;71.66;98485.94;5023961;28;20029;-76
2024/03/21 00:15:05;;;;;;;14.25;12.85;;;;;;;9.10;71.89;98498.47;5030719;28;20496;-76
2024/03/21 00:17:32;;;;;;;14.85;12.20;;;;;;;9.10;71.77;98497.63;5047270;28;20067;-75
2024/03/21 00:19:57;;;;;;;14.05;12.70;;;;;;;8.99;71.73;98483.09;5044191;28;20088;-76
2024/03/21 00:22:22;;;;;;;15.23;13.13;;;;;;;9.06;71.75;98497.25;5041696;28;20026;-75
2024/03/21 00:24:48;;;;;;;15.80;13.30;;;;;;;8.96;71.92;98488.94;5033765;28;20171;-76
2024/03/21 00:27:13;;;;;;;15.18;13.57;;;;;;;8.95;72.17;98488.13;5050815;28;20406;-76
2024/03/21 00:29:39;;;;;;;14.20;12.70;;;;;;;8.85;72.26;98470.88;5048304;28;20032;-76
2024/03/21 00:32:06;;;;;;;14.13;12.57;;;;;;;8.93;72.15;98479.47;5030638;28;20469;-76
2024/03/21 00:34:31;;;;;;;15.38;12.90;;;;;;;8.93;72.28;98474.09;5059524;28;20159;-75
2024/03/21 00:36:56;;;;;;;15.23;13.43;;;;;;;9.01;71.64;98481.00;5052360;28;20067;-75
2024/03/21 00:39:23;;;;;;;14.52;12.45;;;;;;;8.94;72.25;98481.09;5016511;28;20437;-75
2024/03/21 00:41:50;;;;;;;14.00;12.70;;;;;;;8.92;71.83;98477.81;5051443;23;20052;-77
2024/03/21 00:44:15;;;;;;;14.98;13.20;;;;;;;8.78;72.03;98454.03;5057133;28;20720;-77
2024/03/21 00:46:41;;;;;;;15.60;13.93;;;;;;;8.89;72.40;98469.41;5050857;28;20017;-77
2024/03/21 00:49:10;;;;;;;15.35;12.55;;;;;;;8.91;72.81;98476.16;5044725;28;20400;-77
2024/03/21 00:51:36;;;;;;;16.98;14.82;;;;;;;8.90;72.67;98474.53;5029854;28;20388;-77
2024/03/21 00:54:01;;;;;;;15.45;13.85;;;;;;;8.88;72.46;98481.19;5038405;28;20552;-77
2024/03/21 00:56:27;;;;;;;14.55;13.18;;;;;;;8.71;73.17;98453.31;5047265;28;20400;-77
2024/03/21 00:58:57;;;;;;;15.95;14.25;;;;;;;8.86;73.26;98485.97;5029926;28;20412;-75
2024/03/21 01:01:24;;;;;;;15.20;13.68;;;;;;;8.67;73.28;98446.75;5026425;28;20037;-75
2024/03/21 01:03:49;;;;;;;17.33;14.13;;;;;;;8.83;73.82;98475.66;5043442;28;20088;-75
2024/03/21 01:06:15;;;;;;;15.60;13.90;;;;;;;8.72;73.59;98463.00;5011407;28;20075;-76
2024/03/21 01:08:40;;;;;;;16.33;13.35;;;;;;;8.75;73.25;98473.31;5028639;28;20500;-75
2024/03/21 01:11:06;;;;;;;16.45;14.75;;;;;;;8.55;73.32;98435.97;4994963;28;20034;-76
2024/03/21 01:13:31;;;;;;;15.55;14.05;;;;;;;8.79;73.88;98483.38;5014619;28;20392;-76
2024/03/21 01:15:56;;;;;;;16.98;14.15;;;;;;;8.72;73.82;98465.69;5046864;28;20033;-76
2024/03/21 01:18:34;;;;;;;15.30;13.68;;;;;;;8.48;73.77;98432.53;5030564;28;20021;-76
2024/03/21 01:21:01;;;;;;;14.02;12.63;;;;;;;8.74;73.96;98485.09;5047307;28;20520;-75
2024/03/21 01:23:27;;;;;;;13.80;12.43;;;;;;;8.75;74.43;98486.72;5030569;28;20036;-75
2024/03/21 01:25:52;;;;;;;15.82;13.43;;;;;;;8.75;73.97;98492.09;5026749;28;20033;-75
2024/03/21 01:28:17;;;;;;;15.35;13.68;;;;;;;8.72;74.11;98481.81;5045923;28;20029;-77
2024/03/21 01:30:43;;;;;;;17.77;13.60;;;;;;;8.55;74.45;98453.91;5028168;28;20401;-77
2024/03/21 01:33:08;;;;;;;14.77;12.82;;;;;;;8.72;74.76;98481.81;5022314;28;20067;-77
2024/03/21 01:35:34;;;;;;;14.00;12.48;;;;;;;8.66;75.45;98471.97;5030866;28;20037;-76
2024/03/21 01:38:00;;;;;;;14.70;12.98;;;;;;;8.67;75.56;98473.59;5014361;28;20026;-77
2024/03/21 01:40:25;;;;;;;13.73;12.27;;;;;;;8.64;76.10;98471.34;5030381;28;20535;-76
2024/03/21 01:42:51;;;;;;;16.65;12.48;;;;;;;8.67;75.43;98462.88;5026096;28;20029;-77
2024/03/21 01:45:17;;;;;;;15.90;12.80;;;;;;;8.69;76.24;98471.50;5031510;28;20033;-78
2024/03/21 01:47:43;;;;;;;14.10;12.65;;;;;;;8.60;75.80;98456.75;5047964;28;20032;-75
2024/03/21 01:50:09;;;;;;;13.98;12.50;;;;;;;8.59;76.03;98449.75;5013811;28;20079;-75
2024/03/21 01:52:35;;;;;;;14.43;12.40;;;;;;;8.63;76.02;98450.94;5050310;28;20022;-76
2024/03/21 01:55:01;;;;;;;13.55;11.93;;;;;;;8.72;76.00;98460.31;5031810;28;20034;-75
2024/03/21 01:57:27;;;;;;;15.25;12.48;;;;;;;8.64;76.21;98447.19;5031415;28;20117;-76
2024/03/21 01:59:56;;;;;;;12.65;11.32;;;;;;;8.71;75.78;98454.13;5037715;28;20075;-76
2024/03/21 02:02:22;;;;;;;14.95;12.70;;;;;;;8.72;76.05;98454.97;5035116;28;20041;-76
2024/03/21 02:04:48;;;;;;;14.80;12.57;;;;;;;8.67;75.48;98447.56;5034188;28;20505;-76
2024/03/21 02:07:16;;;;;;;13.52;11.70;;;;;;;8.58;75.39;98440.06;5018169;28;20064;-76
2024/03/21 02:09:41;;;;;;;14.98;12.27;;;;;;;8.67;75.52;98458.31;5034068;28;20040;-76
2024/03/21 02:12:08;;;;;;;15.48;12.52;;;;;;;8.67;75.33;98468.22;5006177;28;20017;-76
2024/03/21 02:14:35;;;;;;;14.85;13.35;;;;;;;8.60;74.99;98462.13;5031438;28;20041;-75
2024/03/21 02:17:01;;;;;;;14.52;12.68;;;;;;;8.55;74.91;98454.75;5046859;28;20022;-76
2024/03/21 02:19:26;;;;;;;13.38;12.07;;;;;;;8.43;75.50;98434.25;5015887;28;20029;-76
2024/03/21 02:24:36;;;;;;;14.43;12.98;;;;;;;8.46;75.14;98449.91;5036681;28;20034;-75
2024/03/21 02:27:01;;;;;;;16.38;12.57;;;;;;;8.41;74.61;98455.13;5052822;28;20021;-75
2024/03/21 02:29:27;;;;;;;13.13;11.73;;;;;;;8.29;74.58;98439.78;4996329;28;20037;-76
2024/03/21 02:31:52;;;;;;;13.13;11.75;;;;;;;8.29;75.13;98447.00;5057315;28;20041;-76
2024/03/21 02:34:18;;;;;;;14.75;12.35;;;;;;;8.20;75.05;98433.03;5001190;28;20566;-75
2024/03/21 02:36:43;;;;;;;13.73;11.93;;;;;;;8.35;75.13;98460.34;5022240;28;20017;-75
2024/03/21 02:39:09;;;;;;;13.82;11.43;;;;;;;8.34;75.11;98463.25;5027759;28;20040;-75
2024/03/21 02:41:34;;;;;;;15.32;12.70;;;;;;;8.35;75.31;98454.97;5028004;28;20052;-76
2024/03/21 02:44:00;;;;;;;13.82;12.43;;;;;;;8.25;74.73;98435.88;5033126;28;20037;-76
2024/03/21 02:46:25;;;;;;;17.83;13.82;;;;;;;8.16;74.75;98421.13;5015914;28;20108;-75
2024/03/21 02:48:51;;;;;;;13.23;11.88;;;;;;;8.22;75.26;98439.00;5000510;28;20809;-76
2024/03/21 02:51:16;;;;;;;14.00;12.50;;;;;;;8.12;74.61;98427.94;5015218;28;20029;-75
2024/03/21 02:53:42;;;;;;;15.23;12.50;;;;;;;8.25;75.14;98446.59;5035022;28;20029;-75
2024/03/21 02:56:07;;;;;;;20.13;15.63;;;;;;;8.18;74.94;98440.50;5049675;28;20467;-77
2024/03/21 02:58:32;;;;;;;14.88;13.38;;;;;;;8.22;74.70;98454.25;5033311;28;20033;-76
2024/03/21 03:00:58;;;;;;;17.75;15.75;;;;;;;8.22;75.34;98449.72;5014023;28;20108;-75
2024/03/21 03:03:23;;;;;;;16.10;14.32;;;;;;;8.18;74.99;98443.19;5048910;28;20033;-77
2024/03/21 03:05:49;;;;;;;17.08;15.25;;;;;;;8.14;75.51;98425.06;5017434;28;20065;-77
2024/03/21 03:08:14;;;;;;;20.40;16.50;;;;;;;8.06;75.82;98423.50;5006230;28;20076;-76
2024/03/21 03:10:39;;;;;;;17.85;15.07;;;;;;;8.15;75.33;98443.63;5033181;28;20025;-76
2024/03/21 03:13:05;;;;;;;18.05;15.55;;;;;;;8.13;75.57;98434.97;5005658;28;20034;-75
2024/03/21 03:15:30;;;;;;;20.23;16.42;;;;;;;8.18;75.39;98445.03;5056814;28;20447;-75
2024/03/21 03:17:56;;;;;;;20.38;16.17;;;;;;;8.23;76.39;98440.66;5032882;28;20029;-77
2024/03/21 03:20:21;;;;;;;16.77;14.95;;;;;;;8.17;75.84;98436.16;5039510;28;20389;-76
2024/03/21 03:22:47;;;;;;;16.25;14.25;;;;;;;8.26;76.10;98444.78;5016603;28;20390;-76
2024/03/21 03:25:12;;;;;;;17.23;15.38;;;;;;;8.17;76.17;98446.88;5030215;28;20022;-75
2024/03/21 03:27:37;;;;;;;16.30;14.57;;;;;;;8.23;76.37;98450.56;5032336;28;20144;-75
2024/03/21 03:30:03;;;;;;;15.07;13.10;;;;;;;8.09;76.07;98431.09;5014406;28;20029;-75
2024/03/21 03:32:32;;;;;;;15.60;13.15;;;;;;;8.05;75.76;98427.19;5016462;28;20061;-76
2024/03/21 03:37:42;;;;;;;15.55;13.88;;;;;;;8.11;76.84;98442.44;5027639;28;20033;-75
2024/03/21 03:40:09;;;;;;;16.00;14.38;;;;;;;7.91;76.45;98411.50;5019399;28;20389;-76
2024/03/21 03:42:35;;;;;;;19.58;15.48;;;;;;;8.00;76.73;98429.75;5017692;28;20037;-76
2024/03/21 03:45:00;;;;;;;27.92;20.33;;;;;;;8.07;76.68;98424.31;5008462;28;20029;-76
2024/03/21 03:47:26;;;;;;;40.53;36.13;;;;;;;7.93;77.09;98429.00;5012233;28;20037;-76
2024/03/21 03:49:51;;;;;;;25.95;22.50;;;;;;;7.89;77.88;98409.03;5044617;28;20025;-75
2024/03/21 03:52:16;;;;;;;18.35;14.43;;;;;;;7.94;78.29;98419.91;5040976;28;20040;-76
2024/03/21 03:54:42;;;;;;;16.67;14.55;;;;;;;7.95;78.77;98426.91;5050558;28;20100;-76
2024/03/21 03:57:07;;;;;;;16.73;13.73;;;;;;;7.96;79.23;98433.91;5047049;28;20518;-76
2024/03/21 03:59:33;;;;;;;19.55;14.63;;;;;;;7.89;78.73;98417.06;5032652;28;20028;-76
2024/03/21 04:01:58;;;;;;;16.70;14.52;;;;;;;7.88;78.88;98415.44;5025562;28;20069;-77
2024/03/21 04:04:25;;;;;;;16.98;14.63;;;;;;;8.02;78.57;98430.34;5028270;28;20033;-76
2024/03/21 04:06:51;;;;;;;16.60;14.82;;;;;;;7.96;78.14;98412.44;5014868;28;20443;-76
2024/03/21 04:09:17;;;;;;;20.60;16.60;;;;;;;8.05;78.42;98426.41;5013572;28;20109;-76
2024/03/21 04:11:42;;;;;;;17.65;15.38;;;;;;;8.02;77.74;98422.31;5031108;28;20128;-76
2024/03/21 04:14:08;;;;;;;18.77;14.95;;;;;;;8.11;78.25;98431.69;5004249;28;20392;-76
2024/03/21 04:16:33;;;;;;;16.63;14.48;;;;;;;8.14;77.85;98435.81;5004833;28;20105;-75
2024/03/21 04:18:58;;;;;;;19.08;13.18;;;;;;;8.07;78.45;98422.47;5032749;28;20032;-76
2024/03/21 04:21:24;;;;;;;17.30;14.13;;;;;;;8.01;77.80;98419.81;4982178;28;20046;-76
2024/03/21 04:23:49;;;;;;;16.15;13.25;;;;;;;8.11;77.63;98430.88;5048713;28;20029;-76
2024/03/21 04:26:14;;;;;;;15.73;13.38;;;;;;;8.08;77.18;98426.78;5031162;28;20454;-76
2024/03/21 04:28:40;;;;;;;16.40;13.90;;;;;;;8.08;77.85;98426.78;5032537;28;20026;-75
2024/03/21 04:31:05;;;;;;;15.30;13.70;;;;;;;8.13;77.81;98434.97;4998558;28;20033;-76
2024/03/21 04:33:30;;;;;;;15.75;14.02;;;;;;;8.01;76.94;98409.94;5030916;28;20064;-75
2024/03/21 04:35:56;;;;;;;15.82;14.23;;;;;;;8.11;77.55;98426.34;5030829;28;20468;-76
2024/03/21 04:38:21;;;;;;;16.98;14.27;;;;;;;8.06;77.57;98425.34;5030633;28;20025;-76
2024/03/21 04:40:47;;;;;;;17.92;14.60;;;;;;;7.91;77.10;98409.59;5014355;28;20431;-76
2024/03/21 04:43:12;;;;;;;17.88;14.25;;;;;;;7.88;76.62;98410.06;5031954;28;20025;-75
2024/03/21 04:45:39;;;;;;;16.90;15.07;;;;;;;7.99;77.22;98428.09;5011579;28;20038;-76
2024/03/21 04:48:05;;;;;;;19.23;14.43;;;;;;;7.95;76.91;98426.91;4991599;28;20026;-76
2024/03/21 04:50:30;;;;;;;18.08;16.15;;;;;;;7.93;76.51;98439.72;5010210;28;20121;-76
2024/03/21 04:52:55;;;;;;;15.48;13.90;;;;;;;7.71;76.39;98419.72;5031807;28;20492;-76
2024/03/21 04:55:21;;;;;;;19.00;15.70;;;;;;;7.73;76.71;98427.53;5014246;28;20037;-76
2024/03/21 04:57:46;;;;;;;15.75;14.00;;;;;;;7.65;76.62;98431.34;5030591;28;20479;-76
2024/03/21 05:00:12;;;;;;;16.45;14.68;;;;;;;7.56;76.33;98432.66;5024451;28;20042;-76
2024/03/21 05:02:38;;;;;;;19.65;15.60;;;;;;;7.55;76.64;98431.00;5028379;28;20029;-76
2024/03/21 05:05:04;;;;;;;17.30;15.45;;;;;;;7.40;76.59;98411.75;5023659;28;20037;-75
2024/03/21 05:07:30;;;;;;;17.45;15.52;;;;;;;7.52;76.34;98439.47;5021000;28;20036;-75
2024/03/21 05:09:55;;;;;;;18.17;15.60;;;;;;;7.56;76.23;98443.38;5042081;28;20072;-75
2024/03/21 05:12:21;;;;;;;18.25;16.35;;;;;;;7.44;76.88;98426.38;5029430;28;20033;-75
2024/03/21 05:14:46;;;;;;;18.90;15.55;;;;;;;7.56;77.21;98438.00;5040183;28;20065;-75
2024/03/21 05:17:14;;;;;;;18.25;14.50;;;;;;;7.58;76.17;98435.94;5041833;28;20025;-75
2024/03/21 05:19:39;;;;;;;18.10;15.00;;;;;;;7.51;77.05;98427.13;5027305;28;20125;-74
2024/03/21 05:22:05;;;;;;;17.23;15.35;;;;;;;7.40;76.61;98422.44;5040646;28;20112;-75
2024/03/21 05:24:30;;;;;;;20.38;15.57;;;;;;;7.42;76.84;98431.91;5031229;28;20091;-75
2024/03/21 05:26:56;;;;;;;18.95;16.77;;;;;;;7.35;76.12;98419.63;5011473;28;20033;-79
2024/03/21 05:29:21;;;;;;;18.83;16.23;;;;;;;7.44;76.66;98442.44;5027855;28;20045;-76
2024/03/21 05:31:47;;;;;;;18.35;16.45;;;;;;;7.39;76.72;98431.56;5017541;28;20036;-74
2024/03/21 05:34:12;;;;;;;18.13;16.23;;;;;;;7.34;77.40;98429.53;5035830;28;20045;-76
2024/03/21 05:36:38;;;;;;;19.38;16.23;;;;;;;7.28;76.64;98424.22;5034967;28;20053;-76
2024/03/21 05:39:03;;;;;;;18.63;15.75;;;;;;;7.35;77.00;98425.00;5034741;28;20404;-75
2024/03/21 05:41:30;;;;;;;17.42;15.63;;;;;;;7.31;77.06;98418.41;5017630;28;20029;-75
2024/03/21 05:43:56;;;;;;;20.38;15.95;;;;;;;7.38;76.94;98427.22;5053334;28;20040;-75
2024/03/21 05:46:26;;;;;;;18.30;16.27;;;;;;;7.36;76.59;98419.41;5033585;28;20021;-75
2024/03/21 05:48:56;;;;;;;19.35;16.77;;;;;;;7.43;77.25;98422.03;5018514;28;20060;-76
2024/03/21 05:51:22;;;;;;;24.20;17.00;;;;;;;7.36;76.66;98421.25;5036391;28;20021;-77
2024/03/21 05:53:47;;;;;;;19.42;15.75;;;;;;;6.88;77.90;98344.16;5030747;28;20491;-76
2024/03/21 05:56:14;;;;;;;21.30;16.00;;;;;;;7.39;77.00;98424.34;5011620;28;20029;-74
2024/03/21 05:58:39;;;;;;;19.42;15.73;;;;;;;7.47;78.26;98432.09;5050939;28;20036;-76
2024/03/21 06:03:39;;;;;;;17.48;15.63;;;;;;;7.49;78.01;98431.88;5021593;28;20183;-77
2024/03/21 06:06:05;;;;;;;18.25;15.63;;;;;;;7.48;77.82;98420.34;5011027;28;20080;-78
2024/03/21 06:08:30;;;;;;;20.40;16.10;;;;;;;7.59;78.47;98429.50;5049122;28;20127;-78
2024/03/21 06:10:56;;;;;;;22.15;17.02;;;;;;;7.57;78.83;98434.28;5019607;28;20040;-77
2024/03/21 06:13:21;;;;;;;19.00;17.00;;;;;;;7.53;77.86;98422.38;5022292;28;20040;-78
2024/03/21 06:15:47;;;;;;;23.42;17.75;;;;;;;7.48;77.70;98411.47;5011615;28;20033;-78
2024/03/21 06:18:14;;;;;;;21.42;18.17;;;;;;;7.60;77.95;98428.50;5029458;28;20540;-77
2024/03/21 06:20:39;;;;;;;20.98;17.65;;;;;;;7.60;78.58;98433.84;4996301;28;20052;-77
2024/03/21 06:23:05;;;;;;;21.10;17.05;;;;;;;7.60;78.61;98418.59;5017096;28;20496;-74
2024/03/21 06:25:30;;;;;;;22.55;18.25;;;;;;;7.77;78.40;98440.28;4993691;28;20033;-77
2024/03/21 06:27:55;;;;;;;21.23;18.35;;;;;;;7.74;78.98;98424.66;5006013;28;20547;-77
2024/03/21 06:30:21;;;;;;;21.20;18.90;;;;;;;7.77;78.44;98421.50;4984757;28;20112;-76
2024/03/21 06:32:47;;;;;;;21.95;19.75;;;;;;;7.94;78.73;98436.00;5033975;28;20484;-76
2024/03/21 06:35:12;;;;;;;24.38;21.42;;;;;;;7.92;79.16;98422.00;5027975;28;20021;-76
2024/03/21 06:37:38;;;;;;;23.88;21.30;;;;;;;8.03;79.29;98428.47;5025970;28;20037;-76
2024/03/21 06:40:04;;;;;;;25.33;22.63;;;;;;;8.09;79.20;98439.16;5026615;28;20029;-75
2024/03/21 06:42:31;;;;;;;24.35;21.48;;;;;;;8.16;78.86;98449.81;5093231;22;20063;-77
2024/03/21 06:44:58;;;;;;;23.58;21.08;;;;;;;8.19;78.81;98449.38;5083307;28;20031;-74
2024/03/21 06:47:27;;;;;;;25.38;22.58;;;;;;;8.18;78.86;98459.28;5100761;28;20039;-77
2024/03/21 06:49:58;;;;;;;25.30;22.17;;;;;;;7.96;79.26;98414.34;5067311;28;20044;-77
2024/03/21 06:52:25;;;;;;;28.20;22.67;;;;;;;7.96;79.29;98417.03;5104478;28;20032;-75
2024/03/21 06:54:50;;;;;;;25.63;22.23;;;;;;;8.39;79.25;98476.00;5086673;28;20042;-77
2024/03/21 06:57:17;;;;;;;23.67;21.10;;;;;;;8.49;78.79;98473.63;5079804;28;20036;-73
2024/03/21 06:59:43;;;;;;;26.50;21.23;;;;;;;8.53;79.11;98456.84;5079194;28;20042;-74
2024/03/21 07:02:09;;;;;;;25.10;20.85;;;;;;;8.32;78.98;98420.56;5077737;28;20130;-74
2024/03/21 07:04:35;;;;;;;23.75;20.50;;;;;;;8.79;79.51;98482.53;5080983;28;20020;-75
2024/03/21 07:07:02;;;;;;;24.15;20.77;;;;;;;8.62;78.98;98438.56;5064525;28;20043;-76
2024/03/21 07:09:27;;;;;;;23.02;19.85;;;;;;;8.86;78.91;98456.44;5065595;28;20024;-75
2024/03/21 07:11:52;;;;;;;22.02;19.55;;;;;;;8.68;78.44;98400.09;5084246;28;20131;-74
2024/03/21 07:14:18;;;;;;;26.15;21.10;;;;;;;8.98;79.10;98438.50;5102257;28;20023;-74
2024/03/21 07:16:44;;;;;;;26.08;20.88;;;;;;;9.01;78.65;98435.34;5081622;28;20032;-74
2024/03/21 07:19:09;;;;;;;23.95;20.70;;;;;;;9.13;78.31;98430.81;5076728;28;20111;-74
2024/03/21 07:21:35;;;;;;;24.23;21.13;;;;;;;9.38;77.82;98463.72;5093187;28;20046;-75
2024/03/21 07:24:00;;;;;;;23.63;20.65;;;;;;;9.16;77.46;98403.50;5119093;28;20031;-77
2024/03/21 07:26:25;;;;;;;25.85;20.48;;;;;;;9.39;77.31;98425.03;5074052;28;20079;-75
2024/03/21 07:28:51;;;;;;;24.70;19.50;;;;;;;9.58;77.18;98458.88;5096594;28;20032;-76
2024/03/21 07:31:16;;;;;;;22.30;19.33;;;;;;;9.39;76.37;98414.31;5073826;28;20043;-75
2024/03/21 07:33:42;;;;;;;22.95;19.58;;;;;;;9.66;76.05;98463.09;5101737;28;20555;-77
2024/03/21 07:36:07;;;;;;;24.52;19.05;;;;;;;9.72;76.07;98489.03;5078555;28;20131;-76
2024/03/21 07:38:33;;;;;;;20.35;18.05;;;;;;;9.43;76.19;98442.34;5068834;28;20016;-75
2024/03/21 07:41:00;;;;;;;23.02;19.13;;;;;;;10.00;75.89;98507.19;5095907;28;20118;-76
2024/03/21 07:43:26;;;;;;;21.15;18.80;;;;;;;9.89;76.67;98489.19;5059215;28;20024;-75
2024/03/21 07:45:51;;;;;;;21.27;18.30;;;;;;;10.06;75.93;98490.16;5105413;28;20116;-76
2024/03/21 07:48:17;;;;;;;20.17;17.90;;;;;;;10.22;75.61;98505.63;5055087;28;20032;-75
2024/03/21 07:50:44;;;;;;;19.52;17.33;;;;;;;9.91;75.35;98446.72;5074464;28;20081;-76
2024/03/21 07:53:11;;;;;;;22.48;19.00;;;;;;;10.24;75.07;98481.97;5099189;28;20486;-76
2024/03/21 07:55:37;;;;;;;22.33;18.40;;;;;;;10.40;75.14;98497.41;5074540;28;20119;-75
2024/03/21 07:58:05;;;;;;;28.38;21.00;;;;;;;10.27;74.81;98478.78;5054600;28;20028;-75
2024/03/21 08:00:30;;;;;;;18.90;16.15;;;;;;;10.48;74.78;98494.34;5074128;28;20035;-76
2024/03/21 08:02:55;;;;;;;19.15;16.40;;;;;;;10.50;75.63;98505.72;5074607;28;20432;-76
2024/03/21 08:05:21;;;;;;;19.75;16.77;;;;;;;10.58;74.75;98499.94;5081002;28;20039;-75
2024/03/21 08:07:46;;;;;;;20.08;15.77;;;;;;;10.63;73.96;98505.44;5097697;28;20595;-76
2024/03/21 08:10:12;;;;;;;21.88;15.88;;;;;;;10.58;73.69;98478.41;5102882;28;20087;-77
2024/03/21 08:12:38;;;;;;;19.73;17.63;;;;;;;10.65;73.96;98489.88;5080553;28;20063;-74
2024/03/21 08:15:04;;;;;;;19.17;15.93;;;;;;;10.91;74.11;98505.50;5078613;28;20068;-75
2024/03/21 08:17:29;;;;;;;19.27;16.60;;;;;;;11.02;73.33;98507.34;5050369;28;20028;-75
2024/03/21 08:19:56;;;;;;;18.45;16.50;;;;;;;11.16;73.71;98507.03;5074849;28;20047;-75
2024/03/21 08:22:21;;;;;;;21.30;16.95;;;;;;;11.25;73.34;98497.53;5082524;28;20051;-75
2024/03/21 08:24:48;;;;;;;23.88;18.52;;;;;;;11.40;73.05;98512.13;5053936;28;20063;-75
2024/03/21 08:27:17;;;;;;;22.13;17.83;;;;;;;11.44;73.61;98499.78;5075746;28;20024;-76
2024/03/21 08:29:43;;;;;;;21.35;17.33;;;;;;;11.58;73.29;98516.47;5090799;28;20028;-75
2024/03/21 08:32:09;;;;;;;17.90;15.75;;;;;;;11.57;72.41;98504.06;5073957;28;20035;-75
2024/03/21 08:34:34;;;;;;;17.70;15.82;;;;;;;11.68;72.49;98489.72;5090675;28;20044;-75
2024/03/21 08:37:00;;;;;;;18.65;16.58;;;;;;;11.88;71.72;98495.44;5090728;28;20020;-76
2024/03/21 08:39:25;;;;;;;21.83;17.70;;;;;;;12.12;72.05;98502.31;5090600;28;20118;-76
2024/03/21 08:41:50;;;;;;;21.10;16.27;;;;;;;12.19;71.45;98489.47;5091656;28;20031;-76
2024/03/21 08:44:16;;;;;;;21.55;15.82;;;;;;;12.15;69.77;98480.22;5073648;28;20049;-76
2024/03/21 08:46:41;;;;;;;18.50;14.30;;;;;;;12.36;69.29;98482.16;5073384;28;20020;-76
2024/03/21 08:49:06;;;;;;;17.52;14.63;;;;;;;12.46;67.96;98471.47;5057029;28;20406;-76
2024/03/21 08:51:32;;;;;;;19.15;15.10;;;;;;;12.53;68.50;98470.50;5065525;28;20031;-76
2024/03/21 08:53:57;;;;;;;21.65;16.38;;;;;;;12.70;67.44;98476.63;5091192;28;20071;-76
2024/03/21 08:56:23;;;;;;;19.27;15.90;;;;;;;12.80;67.16;98483.00;5063267;28;20384;-76
2024/03/21 08:58:48;;;;;;;20.35;15.73;;;;;;;12.85;67.58;98468.72;5055318;28;20709;-76
2024/03/21 09:01:14;;;;;;;19.98;15.93;;;;;;;12.72;67.01;98451.00;5044861;28;20073;-76
2024/03/21 09:03:39;;;;;;;16.85;15.10;;;;;;;12.81;66.80;98451.41;5077816;28;20480;-76
2024/03/21 09:06:05;;;;;;;19.73;15.70;;;;;;;12.99;66.82;98478.09;5068289;28;20110;-75
2024/03/21 09:08:30;;;;;;;18.42;14.63;;;;;;;13.12;66.72;98475.03;5070850;28;20185;-75
2024/03/21 09:11:02;;;;;;;19.02;14.45;;;;;;;13.24;65.80;98477.56;5080297;28;20028;-76
2024/03/21 09:13:28;;;;;;;18.80;14.88;;;;;;;13.25;65.62;98466.53;5077377;28;20046;-75
2024/03/21 09:15:55;;;;;;;17.77;13.93;;;;;;;13.33;65.61;98468.75;5069672;28;20020;-76
2024/03/21 09:18:21;;;;;;;15.80;13.63;;;;;;;13.32;64.72;98463.63;5077503;28;20028;-76
2024/03/21 09:20:46;;;;;;;18.02;13.80;;;;;;;13.42;64.74;98475.34;5076407;28;20106;-77
2024/03/21 09:23:12;;;;;;;16.05;13.55;;;;;;;13.36;64.79;98465.56;5076304;28;20032;-76
2024/03/21 09:25:37;;;;;;;15.57;13.88;;;;;;;13.34;64.82;98461.47;5088639;28;20025;-76
2024/03/21 09:28:03;;;;;;;17.08;14.13;;;;;;;13.41;64.23;98476.44;5070265;28;20031;-77
2024/03/21 09:30:28;;;;;;;16.77;14.23;;;;;;;13.47;64.55;98477.28;5086267;28;20485;-76
2024/03/21 09:32:54;;;;;;;18.38;15.13;;;;;;;13.50;64.38;98477.59;5077069;28;20039;-76
2024/03/21 09:35:19;;;;;;;18.73;14.82;;;;;;;13.59;64.29;98476.06;5045525;28;20163;-76
2024/03/21 09:37:44;;;;;;;15.52;13.05;;;;;;;13.53;64.41;98468.97;5060491;28;20127;-76
2024/03/21 09:40:12;;;;;;;14.90;13.00;;;;;;;13.65;63.87;98499.38;5061503;28;20028;-76
2024/03/21 09:42:38;;;;;;;17.75;13.93;;;;;;;13.62;63.60;98499.91;5092978;28;20059;-76
2024/03/21 09:45:05;;;;;;;19.00;13.45;;;;;;;13.70;63.29;98510.25;5077752;28;20028;-76
2024/03/21 09:47:31;;;;;;;16.85;13.20;;;;;;;13.55;63.78;98502.00;5090028;28;20043;-76
2024/03/21 09:49:57;;;;;;;17.67;13.15;;;;;;;13.55;64.23;98518.25;5060290;28;20028;-77
2024/03/21 09:52:22;;;;;;;18.08;13.50;;;;;;;13.37;64.32;98505.03;5060029;28;20507;-77
2024/03/21 09:54:47;;;;;;;19.25;14.77;;;;;;;13.40;64.71;98512.66;5076457;28;20023;-77
2024/03/21 09:57:14;;;;;;;16.95;14.52;;;;;;;13.40;64.82;98519.94;5093652;28;20403;-76
2024/03/21 09:59:40;;;;;;;18.88;14.10;;;;;;;13.35;64.30;98531.53;5077001;28;20020;-76
2024/03/21 10:02:12;;;;;;;18.02;14.02;;;;;;;13.28;64.62;98533.63;5094104;28;20039;-76
2024/03/21 10:04:46;;;;;;;16.20;14.27;;;;;;;13.15;64.56;98534.84;5068586;28;20042;-76
2024/03/21 10:07:19;;;;;;;22.02;15.27;;;;;;;13.24;64.26;98542.50;5093574;28;20078;-76
2024/03/21 10:09:57;;;;;;;19.08;14.50;;;;;;;13.17;64.67;98548.09;5080877;28;20044;-77
2024/03/21 10:12:26;;;;;;;19.40;15.48;;;;;;;13.04;64.92;98532.22;5068566;28;20403;-77
2024/03/21 10:14:55;;;;;;;19.65;15.85;;;;;;;13.06;65.46;98519.31;5076003;28;20024;-76
2024/03/21 10:17:20;;;;;;;20.95;16.35;;;;;;;13.19;65.26;98527.03;5101741;28;20044;-77
2024/03/21 10:19:46;;;;;;;17.25;15.00;;;;;;;13.23;65.45;98533.59;5059549;28;20109;-76
2024/03/21 10:22:19;;;;;;;19.60;15.60;;;;;;;13.19;64.95;98529.72;5076060;28;20040;-76
2024/03/21 10:24:51;;;;;;;18.50;14.63;;;;;;;13.28;65.16;98533.63;5075815;28;20036;-76
2024/03/21 10:27:16;;;;;;;18.95;15.73;;;;;;;13.42;64.79;98551.09;5085709;28;20028;-76
2024/03/21 10:29:42;;;;;;;19.40;15.93;;;;;;;13.41;64.24;98533.25;5076052;28;20066;-76
2024/03/21 10:32:21;;;;;;;17.70;15.13;;;;;;;13.48;64.32;98538.44;5076208;28;20483;-76
2024/03/21 10:34:49;;;;;;;18.90;16.40;;;;;;;13.60;63.92;98533.72;5077569;28;20047;-77
2024/03/21 10:37:21;;;;;;;18.73;15.70;;;;;;;13.82;63.75;98540.69;5059384;28;20024;-77
2024/03/21 10:39:50;;;;;;;16.48;14.77;;;;;;;13.88;64.21;98526.09;5083142;28;20032;-76
2024/03/21 10:42:30;;;;;;;16.90;14.73;;;;;;;13.91;63.59;98518.56;5071246;28;20114;-77
2024/03/21 10:44:59;;;;;;;16.83;14.93;;;;;;;13.84;62.97;98522.28;5092878;28;20035;-76
2024/03/21 10:47:25;;;;;;;21.33;16.23;;;;;;;13.81;63.18;98528.25;5071692;28;20027;-76
2024/03/21 10:49:51;;;;;;;18.75;16.13;;;;;;;13.96;64.34;98551.09;5075859;28;20070;-76
2024/03/21 10:52:17;;;;;;;17.08;14.60;;;;;;;13.99;64.42;98547.88;5073299;28;20024;-76
2024/03/21 10:54:42;;;;;;;20.95;16.20;;;;;;;13.96;64.88;98551.09;5088300;28;20047;-76
2024/03/21 10:57:15;;;;;;;19.33;16.25;;;;;;;13.98;64.13;98566.00;5070644;28;20027;-77
2024/03/21 10:59:42;;;;;;;19.20;15.95;;;;;;;14.02;64.10;98558.19;5079101;28;20387;-76
2024/03/21 11:02:13;;;;;;;20.73;16.30;;;;;;;13.96;63.73;98559.22;5059183;28;20058;-77
2024/03/21 11:04:41;;;;;;;20.92;15.60;;;;;;;14.09;64.98;98566.94;5068351;28;20047;-76
2024/03/21 11:07:07;;;;;;;21.48;17.65;;;;;;;14.37;63.97;98577.50;5075575;28;20024;-76
2024/03/21 11:09:33;;;;;;;21.90;16.67;;;;;;;14.50;65.15;98568.91;5078070;28;20040;-76
2024/03/21 11:11:58;;;;;;;20.67;17.33;;;;;;;14.32;65.15;98572.84;5058610;28;20024;-76
2024/03/21 11:14:24;;;;;;;22.30;17.65;;;;;;;14.48;64.80;98571.06;5060572;28;20088;-77
2024/03/21 11:16:53;;;;;;;20.77;17.63;;;;;;;14.25;64.98;98572.22;5074866;28;20115;-77
2024/03/21 11:19:18;;;;;;;19.33;17.27;;;;;;;14.30;64.97;98572.28;5059268;28;20081;-77
2024/03/21 11:21:46;;;;;;;22.20;18.30;;;;;;;14.48;63.80;98587.31;5087909;28;20433;-76
2024/03/21 11:24:15;;;;;;;20.58;18.20;;;;;;;14.43;63.80;98584.56;5063555;28;20571;-77